createdAt,value
2018-02-23T00:00:19.724Z,47.5591
2018-02-23T00:01:25.306Z,47.8075
2018-02-23T00:02:30.517Z,47.8075
2018-02-23T00:03:36.213Z,47.8075
2018-02-23T00:04:41.369Z,48.8116
2018-02-23T00:05:46.570Z,48.3095
2018-02-23T00:06:52.021Z,48.3095
2018-02-23T00:07:57.491Z,48.0585
2018-02-23T00:09:02.390Z,48.3095
2018-02-23T00:10:07.838Z,48.8116
2018-02-23T00:11:13.054Z,48.3095
2018-02-23T00:12:18.556Z,49.0626
2018-02-23T00:13:24.047Z,48.5605
2018-02-23T00:14:29.240Z,48.5605
2018-02-23T00:15:35.180Z,49.0626
2018-02-23T00:16:39.864Z,48.8116
2018-02-23T00:17:45.085Z,48.3095
2018-02-23T00:18:51.189Z,48.0585
2018-02-23T00:19:56.665Z,48.0585
2018-02-23T00:21:02.142Z,48.8116
2018-02-23T00:22:08.040Z,48.8116
2018-02-23T00:23:12.965Z,48.5605
2018-02-23T00:24:18.461Z,49.3136
2018-02-23T00:25:24.290Z,49.0626
2018-02-23T00:26:29.776Z,48.5605
2018-02-23T00:27:35.824Z,48.8116
2018-02-23T00:28:40.753Z,48.8116
2018-02-23T00:29:45.966Z,50.2331
2018-02-23T00:30:51.510Z,49.7311
2018-02-23T00:31:56.713Z,49.7311
2018-02-23T00:33:02.189Z,49.7311
2018-02-23T00:34:07.377Z,49.9821
2018-02-23T00:35:12.839Z,49.7311
2018-02-23T00:36:18.033Z,49.7311
2018-02-23T00:37:23.209Z,49.7311
2018-02-23T00:38:28.132Z,49.3136
2018-02-23T00:39:33.781Z,49.7311
2018-02-23T00:40:39.326Z,49.3136
2018-02-23T00:41:44.819Z,49.4801
2018-02-23T00:42:50.459Z,49.0626
2018-02-23T00:43:55.646Z,49.3136
2018-02-23T00:45:00.905Z,48.8116
2018-02-23T00:46:06.110Z,49.5646
2018-02-23T00:47:11.307Z,48.8116
2018-02-23T00:48:16.528Z,49.5646
2018-02-23T00:49:22.253Z,48.0585
2018-02-23T00:50:27.727Z,48.5605
2018-02-23T00:51:33.039Z,48.5605
2018-02-23T00:52:38.219Z,48.5605
2018-02-23T00:53:43.733Z,48.3095
2018-02-23T00:54:49.286Z,48.8116
2018-02-23T00:55:54.482Z,48.8116
2018-02-23T00:56:59.991Z,49.7311
2018-02-23T00:58:05.422Z,49.0626
2018-02-23T00:59:10.624Z,50.2331
2018-02-23T01:00:16.224Z,49.5646
2018-02-23T01:01:22.018Z,48.0585
2018-02-23T01:02:27.535Z,49.0626
2018-02-23T01:03:33.586Z,48.3095
2018-02-23T01:04:39.110Z,49.0626
2018-02-23T01:05:44.313Z,49.3136
2018-02-23T01:06:50.192Z,48.5605
2018-02-23T01:07:55.659Z,48.8116
2018-02-23T01:09:01.159Z,49.7311
2018-02-23T01:10:06.314Z,49.7311
2018-02-23T01:11:11.767Z,49.3136
2018-02-23T01:12:17.257Z,49.7311
2018-02-23T01:13:22.860Z,49.7311
2018-02-23T01:14:28.099Z,49.7311
2018-02-23T01:15:33.958Z,49.4801
2018-02-23T01:16:39.453Z,49.4801
2018-02-23T01:17:44.957Z,50.4841
2018-02-23T01:18:50.966Z,49.4801
2018-02-23T01:19:56.663Z,48.8116
2018-02-23T01:21:01.883Z,49.7311
2018-02-23T01:22:07.333Z,49.4801
2018-02-23T01:23:12.822Z,49.7311
2018-02-23T01:24:18.328Z,49.9821
2018-02-23T01:25:24.075Z,49.7311
2018-02-23T01:26:29.563Z,49.9821
2018-02-23T01:27:35.211Z,50.2331
2018-02-23T01:28:39.846Z,49.7311
2018-02-23T01:29:45.343Z,49.3136
2018-02-23T01:30:51.331Z,49.4801
2018-02-23T01:31:56.796Z,50.2331
2018-02-23T01:33:02.243Z,49.9821
2018-02-23T01:34:07.902Z,50.2331
2018-02-23T01:35:13.367Z,49.7311
2018-02-23T01:36:18.566Z,50.2331
2018-02-23T01:37:24.316Z,49.4801
2018-02-23T01:38:29.231Z,50.2331
2018-02-23T01:39:35.158Z,50.7352
2018-02-23T01:40:39.788Z,50.4841
2018-02-23T01:41:44.994Z,50.9862
2018-02-23T01:42:50.484Z,50.7352
2018-02-23T01:43:55.966Z,51.4882
2018-02-23T01:45:01.458Z,51.2372
2018-02-23T01:46:06.642Z,50.9862
2018-02-23T01:47:12.131Z,51.2372
2018-02-23T01:48:17.613Z,50.9862
2018-02-23T01:49:23.152Z,51.4882
2018-02-23T01:50:28.640Z,50.9862
2018-02-23T01:51:34.313Z,49.9821
2018-02-23T01:52:38.938Z,50.7352
2018-02-23T01:53:43.850Z,50.2331
2018-02-23T01:54:49.805Z,50.2331
2018-02-23T01:55:54.981Z,50.2331
2018-02-23T01:57:00.462Z,51.7393
2018-02-23T01:58:06.392Z,50.7352
2018-02-23T01:59:11.904Z,50.9862
2018-02-23T02:00:17.117Z,50.2331
2018-02-23T02:01:22.954Z,49.9821
2018-02-23T02:02:28.142Z,50.9862
2018-02-23T02:03:34.029Z,50.7352
2018-02-23T02:04:39.514Z,50.7352
2018-02-23T02:05:44.418Z,50.7352
2018-02-23T02:06:50.184Z,51.4882
2018-02-23T02:07:55.659Z,49.9821
2018-02-23T02:09:00.886Z,50.7352
2018-02-23T02:10:06.308Z,51.4882
2018-02-23T02:11:11.775Z,51.4882
2018-02-23T02:12:17.253Z,50.4841
2018-02-23T02:13:22.707Z,51.9903
2018-02-23T02:14:28.178Z,50.9862
2018-02-23T02:15:34.010Z,52.1567
2018-02-23T02:16:38.931Z,50.7352
2018-02-23T02:17:44.117Z,51.2372
2018-02-23T02:18:49.994Z,51.2372
2018-02-23T02:19:54.898Z,51.7393
2018-02-23T02:21:00.098Z,52.6588
2018-02-23T02:22:06.045Z,51.2372
2018-02-23T02:23:11.522Z,51.2372
2018-02-23T02:24:16.707Z,51.2372
2018-02-23T02:25:21.933Z,51.7393
2018-02-23T02:26:27.127Z,50.4841
2018-02-23T02:27:33.082Z,51.4882
2018-02-23T02:28:38.267Z,51.9903
2018-02-23T02:29:42.888Z,51.7393
2018-02-23T02:30:48.787Z,51.7393
2018-02-23T02:31:53.972Z,51.7393
2018-02-23T02:32:59.138Z,51.7393
2018-02-23T02:34:04.613Z,52.6588
2018-02-23T02:35:10.114Z,51.4882
2018-02-23T02:36:15.623Z,52.9124
2018-02-23T02:37:21.354Z,52.4078
2018-02-23T02:38:26.837Z,51.7393
2018-02-23T02:39:32.548Z,52.4078
2018-02-23T02:40:38.053Z,52.4078
2018-02-23T02:41:43.518Z,51.7393
2018-02-23T02:42:49.374Z,53.1608
2018-02-23T02:43:54.856Z,52.9124
2018-02-23T02:45:00.317Z,53.1608
2018-02-23T02:46:06.060Z,52.1567
2018-02-23T02:47:11.531Z,52.4078
2018-02-23T02:48:17.025Z,53.1608
2018-02-23T02:49:22.772Z,52.1567
2018-02-23T02:50:27.959Z,53.1608
2018-02-23T02:51:33.288Z,52.4078
2018-02-23T02:52:38.488Z,52.6588
2018-02-23T02:53:43.399Z,52.6588
2018-02-23T02:54:49.056Z,53.6629
2018-02-23T02:55:54.530Z,53.4118
2018-02-23T02:57:00.003Z,52.6588
2018-02-23T02:58:05.427Z,53.1608
2018-02-23T02:59:10.922Z,53.6629
2018-02-23T03:00:16.418Z,53.4118
2018-02-23T03:01:22.147Z,52.1567
2018-02-23T03:02:27.638Z,52.6588
2018-02-23T03:03:32.983Z,52.4078
2018-02-23T03:04:38.179Z,53.1608
2018-02-23T03:05:43.643Z,52.6588
2018-02-23T03:06:49.364Z,52.6588
2018-02-23T03:07:54.559Z,53.4118
2018-02-23T03:08:59.486Z,53.6629
2018-02-23T03:10:04.112Z,52.9124
2018-02-23T03:11:09.587Z,53.6629
2018-02-23T03:12:15.104Z,54.1649
2018-02-23T03:13:20.842Z,53.1608
2018-02-23T03:14:25.497Z,52.6588
2018-02-23T03:15:31.085Z,53.4118
2018-02-23T03:16:36.577Z,53.1608
2018-02-23T03:17:40.922Z,53.1608
2018-02-23T03:18:46.875Z,53.9165
2018-02-23T03:19:52.056Z,53.6629
2018-02-23T03:20:57.517Z,52.6588
2018-02-23T03:22:03.321Z,53.1608
2018-02-23T03:23:08.244Z,52.6588
2018-02-23T03:24:13.779Z,54.4159
2018-02-23T03:25:18.953Z,52.9124
2018-02-23T03:26:24.461Z,52.4078
2018-02-23T03:27:29.613Z,54.1649
2018-02-23T03:28:34.803Z,53.4118
2018-02-23T03:29:40.284Z,53.1608
2018-02-23T03:30:46.099Z,52.9124
2018-02-23T03:31:51.619Z,53.4118
2018-02-23T03:32:56.790Z,52.4078
2018-02-23T03:34:01.945Z,52.1567
2018-02-23T03:35:07.429Z,53.1608
2018-02-23T03:36:12.620Z,53.6629
2018-02-23T03:37:18.390Z,52.4078
2018-02-23T03:38:23.882Z,53.1608
2018-02-23T03:39:29.583Z,53.4118
2018-02-23T03:40:35.103Z,53.1608
2018-02-23T03:41:40.286Z,53.4118
2018-02-23T03:42:46.121Z,53.1608
2018-02-23T03:43:51.610Z,53.4118
2018-02-23T03:44:57.085Z,54.4159
2018-02-23T03:46:02.909Z,52.6588
2018-02-23T03:47:08.089Z,53.6629
2018-02-23T03:48:13.573Z,53.1608
2018-02-23T03:49:19.325Z,53.1608
2018-02-23T03:50:24.825Z,53.9165
2018-02-23T03:51:30.617Z,53.6629
2018-02-23T03:52:36.101Z,52.9124
2018-02-23T03:53:41.289Z,54.1649
2018-02-23T03:54:46.967Z,54.1649
2018-02-23T03:55:52.451Z,53.9165
2018-02-23T03:56:57.659Z,53.6629
2018-02-23T03:58:03.151Z,54.1649
2018-02-23T03:59:08.357Z,53.9165
2018-02-23T04:00:13.841Z,54.1649
2018-02-23T04:01:19.563Z,54.1649
2018-02-23T04:02:24.770Z,54.1649
2018-02-23T04:03:30.666Z,52.2413
2018-02-23T04:04:35.867Z,52.4078
2018-02-23T04:05:41.050Z,52.4078
2018-02-23T04:06:46.809Z,52.9124
2018-02-23T04:07:52.296Z,52.9124
2018-02-23T04:08:57.782Z,52.4078
2018-02-23T04:10:02.759Z,52.6588
2018-02-23T04:11:08.242Z,51.7393
2018-02-23T04:12:13.760Z,53.4118
2018-02-23T04:13:19.252Z,52.4078
2018-02-23T04:14:24.750Z,52.2413
2018-02-23T04:15:29.739Z,53.4118
2018-02-23T04:16:35.225Z,52.9124
2018-02-23T04:17:40.195Z,52.9124
2018-02-23T04:18:46.404Z,52.4078
2018-02-23T04:19:51.660Z,52.4078
2018-02-23T04:20:56.605Z,51.7393
2018-02-23T04:22:02.058Z,52.2413
2018-02-23T04:23:07.264Z,51.9903
2018-02-23T04:24:12.747Z,52.2413
2018-02-23T04:25:18.456Z,51.4882
2018-02-23T04:26:23.915Z,52.6588
2018-02-23T04:27:29.638Z,52.9124
2018-02-23T04:28:35.194Z,52.4078
2018-02-23T04:29:40.162Z,51.9903
2018-02-23T04:30:46.030Z,51.4882
2018-02-23T04:31:51.218Z,52.2413
2018-02-23T04:32:56.699Z,51.9903
2018-02-23T04:34:02.223Z,51.9903
2018-02-23T04:35:07.682Z,51.7393
2018-02-23T04:36:13.186Z,51.4882
2018-02-23T04:37:18.903Z,52.6588
2018-02-23T04:38:24.402Z,52.4078
2018-02-23T04:39:30.121Z,52.6588
2018-02-23T04:40:35.537Z,51.9903
2018-02-23T04:41:41.039Z,51.9903
2018-02-23T04:42:46.958Z,52.2413
2018-02-23T04:43:52.163Z,51.4882
2018-02-23T04:44:57.077Z,51.4882
2018-02-23T04:46:02.591Z,51.2372
2018-02-23T04:47:07.781Z,51.7393
2018-02-23T04:48:13.286Z,50.9862
2018-02-23T04:49:19.096Z,51.2372
2018-02-23T04:50:24.014Z,52.2413
2018-02-23T04:51:29.730Z,50.7352
2018-02-23T04:52:35.198Z,51.7393
2018-02-23T04:53:40.126Z,50.7352
2018-02-23T04:54:46.060Z,51.2372
2018-02-23T04:55:51.257Z,51.2372
2018-02-23T04:56:56.742Z,51.7393
2018-02-23T04:58:02.332Z,50.9862
2018-02-23T04:59:07.553Z,50.9862
2018-02-23T05:00:13.027Z,50.7352
2018-02-23T05:01:18.757Z,50.4841
2018-02-23T05:02:24.275Z,50.2331
2018-02-23T05:03:29.937Z,49.5646
2018-02-23T05:04:35.119Z,50.7352
2018-02-23T05:05:40.309Z,50.2331
2018-02-23T05:06:45.938Z,50.2331
2018-02-23T05:07:51.406Z,50.7352
2018-02-23T05:08:56.872Z,49.9821
2018-02-23T05:10:01.958Z,50.4841
2018-02-23T05:11:06.864Z,50.4841
2018-02-23T05:12:12.356Z,49.8156
2018-02-23T05:13:18.087Z,49.5646
2018-02-23T05:14:22.961Z,49.5646
2018-02-23T05:15:28.393Z,49.0626
2018-02-23T05:16:33.935Z,49.3136
2018-02-23T05:17:38.924Z,49.3136
2018-02-23T05:18:44.576Z,49.0626
2018-02-23T05:19:50.041Z,48.3095
2018-02-23T05:20:55.265Z,48.8116
2018-02-23T05:22:00.706Z,47.5591
2018-02-23T05:23:05.906Z,48.0585
2018-02-23T05:24:11.410Z,48.8116
2018-02-23T05:25:16.395Z,47.8075
2018-02-23T05:26:21.602Z,48.3095
2018-02-23T05:27:27.132Z,49.0626
2018-02-23T05:28:32.338Z,48.5605
2018-02-23T05:29:37.824Z,48.3095
2018-02-23T05:30:43.643Z,47.8075
2018-02-23T05:31:48.844Z,48.8116
2018-02-23T05:32:54.315Z,48.0585
2018-02-23T05:34:00.353Z,48.5605
2018-02-23T05:35:05.248Z,47.39
2018-02-23T05:36:09.899Z,49.3136
2018-02-23T05:37:15.054Z,48.0585
2018-02-23T05:38:20.543Z,47.8075
2018-02-23T05:39:26.129Z,48.5605
2018-02-23T05:40:31.610Z,48.3095
2018-02-23T05:41:37.104Z,48.8116
2018-02-23T05:42:42.770Z,48.8116
2018-02-23T05:43:48.232Z,48.3095
2018-02-23T05:44:53.721Z,49.0626
2018-02-23T05:45:59.386Z,49.8156
2018-02-23T05:47:04.587Z,49.3136
2018-02-23T05:48:10.059Z,48.5605
2018-02-23T05:49:15.842Z,48.3095
2018-02-23T05:50:21.038Z,48.8116
2018-02-23T05:51:27.253Z,48.5605
2018-02-23T05:52:32.738Z,49.0626
2018-02-23T05:53:38.202Z,48.8116
2018-02-23T05:54:43.584Z,48.0585
2018-02-23T05:55:48.780Z,49.0626
2018-02-23T05:56:54.254Z,48.3095
2018-02-23T05:58:00.075Z,48.8116
2018-02-23T05:59:05.612Z,48.3095
2018-02-23T06:00:10.810Z,48.5605
2018-02-23T06:01:16.288Z,48.3095
2018-02-23T06:02:21.754Z,49.0626
2018-02-23T06:03:27.785Z,47.5591
2018-02-23T06:04:32.980Z,47.8075
2018-02-23T06:05:38.465Z,47.8075
2018-02-23T06:06:44.214Z,47.39
2018-02-23T06:07:49.399Z,47.39
2018-02-23T06:08:54.288Z,47.39
2018-02-23T06:09:59.975Z,47.5591
2018-02-23T06:11:04.871Z,47.8075
2018-02-23T06:12:10.402Z,47.139
2018-02-23T06:13:15.571Z,47.139
2018-02-23T06:14:20.781Z,47.39
2018-02-23T06:15:41.351Z,46.888
2018-02-23T06:16:46.830Z,46.3886
2018-02-23T06:17:52.039Z,46.6369
2018-02-23T06:18:57.898Z,46.888
2018-02-23T06:20:03.384Z,46.3886
2018-02-23T06:21:08.627Z,46.888
2018-02-23T06:22:14.393Z,47.139
2018-02-23T06:23:19.917Z,46.888
2018-02-23T06:24:40.020Z,46.3886
2018-02-23T06:25:45.504Z,46.3886
2018-02-23T06:26:50.676Z,45.3845
2018-02-23T06:27:56.630Z,45.8865
2018-02-23T06:29:01.561Z,45.6355
2018-02-23T06:30:07.051Z,45.3845
2018-02-23T06:31:12.692Z,45.8865
2018-02-23T06:32:18.178Z,45.3845
2018-02-23T06:33:22.817Z,45.3845
2018-02-23T06:34:28.599Z,45.3845
2018-02-23T06:35:34.117Z,44.967
2018-02-23T06:36:39.660Z,45.3845
2018-02-23T06:37:45.119Z,44.967
2018-02-23T06:38:50.310Z,44.4649
2018-02-23T06:39:55.852Z,44.716
2018-02-23T06:41:00.780Z,44.967
2018-02-23T06:42:06.265Z,44.2139
2018-02-23T06:43:12.185Z,44.4649
2018-02-23T06:44:17.663Z,44.716
2018-02-23T06:45:23.182Z,44.716
2018-02-23T06:46:29.030Z,44.967
2018-02-23T06:47:34.238Z,44.967
2018-02-23T06:48:39.687Z,44.0448
2018-02-23T06:49:45.180Z,44.0448
2018-02-23T06:50:50.656Z,44.4649
2018-02-23T06:51:56.422Z,44.0448
2018-02-23T06:53:01.617Z,44.967
2018-02-23T06:54:06.530Z,44.2139
2018-02-23T06:55:12.101Z,43.7964
2018-02-23T06:56:17.595Z,44.4649
2018-02-23T06:57:23.085Z,43.5454
2018-02-23T06:58:28.328Z,43.7964
2018-02-23T06:59:33.849Z,43.7964
2018-02-23T07:00:39.410Z,44.2139
2018-02-23T07:01:44.853Z,44.716
2018-02-23T07:02:50.318Z,44.2139
2018-02-23T07:03:56.126Z,44.0448
2018-02-23T07:05:01.594Z,44.4649
2018-02-23T07:06:07.239Z,44.716
2018-02-23T07:07:13.091Z,44.4649
2018-02-23T07:08:18.585Z,44.967
2018-02-23T07:09:23.774Z,44.2139
2018-02-23T07:10:44.140Z,44.2139
2018-02-23T07:11:49.389Z,43.7964
2018-02-23T07:12:54.855Z,43.7964
2018-02-23T07:14:00.346Z,44.0448
2018-02-23T07:15:05.571Z,45.3845
2018-02-23T07:16:11.302Z,44.967
2018-02-23T07:17:16.762Z,45.1335
2018-02-23T07:18:21.943Z,44.8824
2018-02-23T07:19:28.223Z,45.1335
2018-02-23T07:20:33.697Z,44.967
2018-02-23T07:21:39.438Z,44.716
2018-02-23T07:22:44.354Z,44.4649
2018-02-23T07:23:49.551Z,45.1335
2018-02-23T07:24:55.288Z,44.967
2018-02-23T07:26:00.483Z,44.2139
2018-02-23T07:27:05.391Z,44.2139
2018-02-23T07:28:11.132Z,44.2139
2018-02-23T07:29:16.622Z,44.716
2018-02-23T07:30:21.548Z,44.4649
2018-02-23T07:31:27.486Z,44.4649
2018-02-23T07:32:32.985Z,43.7964
2018-02-23T07:33:38.723Z,43.7964
2018-02-23T07:34:43.363Z,44.0448
2018-02-23T07:35:48.835Z,44.2139
2018-02-23T07:36:54.550Z,45.1335
2018-02-23T07:37:59.179Z,44.716
2018-02-23T07:39:04.672Z,44.0448
2018-02-23T07:40:10.191Z,44.4649
2018-02-23T07:41:15.440Z,44.716
2018-02-23T07:42:20.956Z,44.0448
2018-02-23T07:43:41.140Z,44.0448
2018-02-23T07:44:46.338Z,44.2139
2018-02-23T07:45:51.582Z,43.5454
2018-02-23T07:46:56.791Z,44.2139
2018-02-23T07:48:01.737Z,44.0448
2018-02-23T07:49:06.920Z,44.0448
2018-02-23T07:50:12.417Z,44.2139
2018-02-23T07:51:17.800Z,43.7964
2018-02-23T07:52:23.501Z,44.8824
2018-02-23T07:53:28.747Z,44.716
2018-02-23T07:54:34.751Z,44.8824
2018-02-23T07:55:39.645Z,44.4649
2018-02-23T07:56:45.119Z,44.716
2018-02-23T07:58:05.281Z,44.8824
2018-02-23T07:59:10.496Z,45.1335
2018-02-23T08:00:15.980Z,44.6314
2018-02-23T08:01:21.756Z,44.8824
2018-02-23T08:02:26.959Z,44.0448
2018-02-23T08:03:32.405Z,44.8824
2018-02-23T08:04:37.860Z,44.2139
2018-02-23T08:05:42.752Z,44.4649
2018-02-23T08:06:48.198Z,44.4649
2018-02-23T08:07:53.734Z,44.4649
2018-02-23T08:08:58.948Z,44.6314
2018-02-23T08:10:04.486Z,43.7964
2018-02-23T08:11:09.980Z,44.2139
2018-02-23T08:12:15.221Z,44.0448
2018-02-23T08:13:20.125Z,43.5454
2018-02-23T08:14:24.479Z,43.7964
2018-02-23T08:15:29.907Z,44.2139
2018-02-23T08:16:35.127Z,43.7964
2018-02-23T08:17:40.319Z,44.0448
2018-02-23T08:18:46.247Z,44.0448
2018-02-23T08:19:51.720Z,43.7964
2018-02-23T08:20:57.209Z,43.2944
2018-02-23T08:22:02.385Z,43.0434
2018-02-23T08:23:07.606Z,43.7964
2018-02-23T08:24:13.130Z,42.5413
2018-02-23T08:25:18.004Z,43.5454
2018-02-23T08:26:23.511Z,43.0434
2018-02-23T08:27:29.573Z,43.5454
2018-02-23T08:28:34.805Z,43.0434
2018-02-23T08:29:40.017Z,44.2139
2018-02-23T08:30:45.528Z,43.7964
2018-02-23T08:31:50.464Z,43.2944
2018-02-23T08:32:55.886Z,43.2944
2018-02-23T08:34:00.828Z,42.7924
2018-02-23T08:35:05.745Z,43.2944
2018-02-23T08:36:11.351Z,42.7924
2018-02-23T08:37:16.291Z,43.0434
2018-02-23T08:38:21.761Z,43.7964
2018-02-23T08:39:28.107Z,43.2944
2018-02-23T08:40:34.149Z,42.7924
2018-02-23T08:41:39.085Z,43.2944
2018-02-23T08:42:44.362Z,42.5413
2018-02-23T08:43:49.586Z,41.8728
2018-02-23T08:44:54.992Z,41.8728
2018-02-23T08:46:00.447Z,42.0393
2018-02-23T08:47:05.062Z,41.8728
2018-02-23T08:48:10.575Z,41.6218
2018-02-23T08:49:16.056Z,42.2903
2018-02-23T08:50:21.533Z,42.0393
2018-02-23T08:51:27.739Z,42.0393
2018-02-23T08:52:32.652Z,42.0393
2018-02-23T08:53:37.857Z,41.1198
2018-02-23T08:54:43.351Z,41.1198
2018-02-23T08:55:48.667Z,41.3708
2018-02-23T08:56:53.930Z,41.1198
2018-02-23T08:57:59.654Z,41.8728
2018-02-23T08:59:04.542Z,40.8688
2018-02-23T09:00:09.783Z,41.1198
2018-02-23T09:01:15.524Z,40.8688
2018-02-23T09:02:20.995Z,41.3708
2018-02-23T09:03:26.762Z,41.3708
2018-02-23T09:04:31.937Z,42.0393
2018-02-23T09:05:36.865Z,42.2903
2018-02-23T09:06:41.797Z,41.6218
2018-02-23T09:07:46.698Z,41.6218
2018-02-23T09:08:52.218Z,42.5413
2018-02-23T09:09:57.416Z,41.1198
2018-02-23T09:11:02.042Z,40.8688
2018-02-23T09:12:07.531Z,42.0393
2018-02-23T09:13:13.259Z,41.6218
2018-02-23T09:14:18.484Z,41.8728
2018-02-23T09:16:44.416Z,41.7883
2018-02-23T09:17:49.885Z,41.3708
2018-02-23T09:18:55.647Z,41.3708
2018-02-23T09:20:00.956Z,41.6218
2018-02-23T09:21:06.433Z,41.7883
2018-02-23T09:22:11.576Z,42.0393
2018-02-23T09:23:17.066Z,41.3708
2018-02-23T09:24:22.586Z,42.7924
2018-02-23T09:25:28.541Z,42.0393
2018-02-23T09:26:34.093Z,42.5413
2018-02-23T09:27:40.099Z,41.7883
2018-02-23T09:28:45.642Z,42.2903
2018-02-23T09:29:50.872Z,41.1198
2018-02-23T09:30:56.635Z,42.2903
2018-02-23T09:32:02.032Z,40.6204
2018-02-23T09:33:07.263Z,42.7924
2018-02-23T09:34:12.501Z,42.0393
2018-02-23T09:35:17.891Z,41.7883
2018-02-23T09:36:22.801Z,42.7924
2018-02-23T09:37:28.544Z,43.2944
2018-02-23T09:38:33.738Z,41.5399
2018-02-23T09:39:39.189Z,42.0393
2018-02-23T09:40:44.389Z,41.3708
2018-02-23T09:41:49.316Z,42.2903
2018-02-23T09:42:54.809Z,42.2903
2018-02-23T09:44:00.292Z,42.0393
2018-02-23T09:45:05.754Z,41.5399
2018-02-23T09:46:11.472Z,42.2903
2018-02-23T09:47:16.676Z,41.5399
2018-02-23T09:48:21.865Z,41.7883
2018-02-23T09:49:27.837Z,42.5413
2018-02-23T09:50:33.358Z,41.5399
2018-02-23T09:51:38.822Z,41.7883
2018-02-23T09:52:43.784Z,41.5399
2018-02-23T09:53:48.983Z,41.5399
2018-02-23T09:54:54.854Z,41.7883
2018-02-23T09:55:59.513Z,41.7883
2018-02-23T09:57:04.727Z,42.5413
2018-02-23T09:58:10.199Z,41.3708
2018-02-23T09:59:15.420Z,41.7883
2018-02-23T10:00:21.096Z,42.5413
2018-02-23T10:01:26.872Z,41.5399
2018-02-23T10:02:32.340Z,41.7883
2018-02-23T10:03:38.032Z,42.0393
2018-02-23T10:04:43.524Z,41.2889
2018-02-23T10:05:48.989Z,41.7883
2018-02-23T10:06:54.522Z,41.2889
2018-02-23T10:07:59.716Z,41.2889
2018-02-23T10:09:04.627Z,40.8688
2018-02-23T10:10:10.110Z,41.7883
2018-02-23T10:11:15.026Z,41.7883
2018-02-23T10:12:20.433Z,41.2889
2018-02-23T10:13:25.902Z,42.0393
2018-02-23T10:14:31.360Z,42.2903
2018-02-23T10:15:35.948Z,42.0393
2018-02-23T10:16:40.568Z,42.2903
2018-02-23T10:17:46.045Z,42.5413
2018-02-23T10:18:50.917Z,41.5399
2018-02-23T10:19:56.380Z,42.0393
2018-02-23T10:21:01.575Z,42.5413
2018-02-23T10:22:06.275Z,41.7883
2018-02-23T10:23:11.744Z,41.7883
2018-02-23T10:24:17.216Z,41.0379
2018-02-23T10:25:23.114Z,42.0393
2018-02-23T10:26:28.618Z,42.5413
2018-02-23T10:27:34.376Z,42.0393
2018-02-23T10:28:40.072Z,42.2903
2018-02-23T10:29:45.575Z,41.7883
2018-02-23T10:30:51.445Z,42.7924
2018-02-23T10:31:56.946Z,42.2903
2018-02-23T10:33:02.166Z,42.5413
2018-02-23T10:34:07.710Z,43.2944
2018-02-23T10:35:13.098Z,42.5413
2018-02-23T10:36:18.547Z,43.0434
2018-02-23T10:37:24.258Z,43.2098
2018-02-23T10:38:29.445Z,43.4609
2018-02-23T10:39:34.893Z,43.2944
2018-02-23T10:40:40.109Z,43.4609
2018-02-23T10:41:45.597Z,43.7119
2018-02-23T10:42:51.255Z,43.7119
2018-02-23T10:43:56.735Z,43.7119
2018-02-23T10:45:02.222Z,42.0393
2018-02-23T10:46:07.682Z,43.4609
2018-02-23T10:47:13.244Z,43.2098
2018-02-23T10:48:18.786Z,43.4609
2018-02-23T10:49:24.232Z,42.9588
2018-02-23T10:50:28.907Z,43.7119
2018-02-23T10:51:34.713Z,43.7119
2018-02-23T10:52:39.646Z,43.7119
2018-02-23T10:53:44.579Z,44.1294
2018-02-23T10:54:50.322Z,43.9629
2018-02-23T10:55:56.028Z,42.7924
2018-02-23T10:57:01.495Z,43.4609
2018-02-23T10:58:06.669Z,44.1294
2018-02-23T10:59:11.725Z,43.9629
2018-02-23T11:00:16.665Z,43.7119
2018-02-23T11:01:22.335Z,44.6314
2018-02-23T11:02:27.846Z,43.7119
2018-02-23T11:03:33.844Z,44.1294
2018-02-23T11:04:38.788Z,43.7119
2018-02-23T11:05:44.263Z,43.9629
2018-02-23T11:06:49.698Z,44.1294
2018-02-23T11:07:54.652Z,44.1294
2018-02-23T11:09:00.106Z,43.9629
2018-02-23T11:10:05.583Z,43.9629
2018-02-23T11:11:10.510Z,44.6314
2018-02-23T11:12:15.998Z,43.9629
2018-02-23T11:13:22.092Z,44.8824
2018-02-23T11:14:27.783Z,44.3804
2018-02-23T11:15:33.681Z,43.9629
2018-02-23T11:16:39.147Z,43.7119
2018-02-23T11:17:44.630Z,43.9629
2018-02-23T11:18:50.436Z,44.8824
2018-02-23T11:19:55.924Z,44.3804
2018-02-23T11:21:00.830Z,44.3804
2018-02-23T11:22:06.285Z,43.9629
2018-02-23T11:23:11.487Z,45.0489
2018-02-23T11:24:16.648Z,43.9629
2018-02-23T11:25:22.461Z,44.3804
2018-02-23T11:26:27.934Z,45.0489
2018-02-23T11:27:33.676Z,44.8824
2018-02-23T11:28:39.136Z,44.6314
2018-02-23T11:29:44.052Z,46.053
2018-02-23T11:30:49.516Z,45.5509
2018-02-23T11:31:54.967Z,45.2999
2018-02-23T11:32:59.914Z,44.1294
2018-02-23T11:34:05.284Z,44.7979
2018-02-23T11:35:10.954Z,45.802
2018-02-23T11:36:16.454Z,45.0489
2018-02-23T11:37:21.394Z,45.5509
2018-02-23T11:38:26.916Z,45.5509
2018-02-23T11:39:32.388Z,45.0489
2018-02-23T11:40:37.897Z,45.802
2018-02-23T11:41:43.135Z,45.5509
2018-02-23T11:42:48.591Z,44.3804
2018-02-23T11:43:53.786Z,46.304
2018-02-23T11:44:59.497Z,45.802
2018-02-23T11:46:05.226Z,46.053
2018-02-23T11:47:10.695Z,45.5509
2018-02-23T11:48:15.885Z,46.304
2018-02-23T11:49:21.089Z,45.802
2018-02-23T11:50:26.743Z,45.5509
2018-02-23T11:51:32.650Z,45.802
2018-02-23T11:52:37.581Z,46.806
2018-02-23T11:53:43.192Z,46.053
2018-02-23T11:54:49.027Z,46.555
2018-02-23T11:55:54.564Z,46.304
2018-02-23T11:56:59.451Z,46.806
2018-02-23T11:58:05.167Z,46.555
2018-02-23T11:59:10.679Z,46.555
2018-02-23T12:00:15.867Z,45.5509
2018-02-23T12:01:21.340Z,46.304
2018-02-23T12:02:26.257Z,46.304
2018-02-23T12:03:31.842Z,46.555
2018-02-23T12:04:37.062Z,46.304
2018-02-23T12:05:42.527Z,45.802
2018-02-23T12:06:48.253Z,46.555
2018-02-23T12:07:53.729Z,47.3081
2018-02-23T12:08:59.249Z,47.0571
2018-02-23T12:10:04.695Z,47.4745
2018-02-23T12:11:10.046Z,46.053
2018-02-23T12:12:15.238Z,47.3081
2018-02-23T12:13:21.063Z,46.806
2018-02-23T12:14:25.990Z,47.3081
2018-02-23T12:15:31.623Z,47.7256
2018-02-23T12:16:37.116Z,47.9766
2018-02-23T12:17:42.024Z,47.3081
2018-02-23T12:18:47.192Z,47.3081
2018-02-23T12:19:52.402Z,46.806
2018-02-23T12:20:57.907Z,46.806
2018-02-23T12:22:03.384Z,46.555
2018-02-23T12:23:08.883Z,46.304
2018-02-23T12:24:14.393Z,46.806
2018-02-23T12:25:20.103Z,47.3081
2018-02-23T12:26:25.606Z,46.053
2018-02-23T12:27:31.180Z,46.806
2018-02-23T12:28:36.676Z,47.0571
2018-02-23T12:29:42.161Z,47.7256
2018-02-23T12:30:47.368Z,46.555
2018-02-23T12:31:52.870Z,46.304
2018-02-23T12:32:58.759Z,46.806
2018-02-23T12:34:04.437Z,46.555
2018-02-23T12:35:09.907Z,47.0571
2018-02-23T12:36:15.376Z,47.0571
2018-02-23T12:37:20.563Z,47.5591
2018-02-23T12:38:25.772Z,47.0571
2018-02-23T12:39:31.490Z,47.5591
2018-02-23T12:40:36.952Z,46.806
2018-02-23T12:41:42.452Z,48.978
2018-02-23T12:42:48.165Z,47.8075
2018-02-23T12:43:53.386Z,47.5591
2018-02-23T12:44:58.580Z,48.2276
2018-02-23T12:46:04.121Z,47.9766
2018-02-23T12:47:09.326Z,47.8075
2018-02-23T12:48:14.246Z,47.5591
2018-02-23T12:49:19.786Z,47.5591
2018-02-23T12:50:25.006Z,47.8075
2018-02-23T12:51:30.647Z,48.0585
2018-02-23T12:52:35.896Z,48.2276
2018-02-23T12:53:40.813Z,48.2276
2018-02-23T12:54:45.962Z,49.229
2018-02-23T12:55:51.491Z,48.7296
2018-02-23T12:56:56.993Z,49.7311
2018-02-23T12:58:01.861Z,48.978
2018-02-23T12:59:07.054Z,49.7311
2018-02-23T13:00:12.541Z,50.2331
2018-02-23T13:01:18.304Z,49.229
2018-02-23T13:02:23.867Z,49.4801
2018-02-23T13:03:29.894Z,49.229
2018-02-23T13:04:35.372Z,48.978
2018-02-23T13:05:40.328Z,49.4801
2018-02-23T13:06:45.847Z,49.9821
2018-02-23T13:07:51.341Z,49.7311
2018-02-23T13:08:56.250Z,48.978
2018-02-23T13:10:01.182Z,49.229
2018-02-23T13:11:06.674Z,49.229
2018-02-23T13:12:12.139Z,49.7311
2018-02-23T13:13:17.862Z,50.7352
2018-02-23T13:14:23.084Z,49.7311
2018-02-23T13:15:29.012Z,49.9821
2018-02-23T13:16:34.494Z,49.229